sensor_id;sensor_type;location;lat;lon;timestamp;temperature;humidity
5055;DHT22;13829;48.990;8.346;2022-12-10T00:02:14;3.50;99.90
5055;DHT22;13829;48.990;8.346;2022-12-10T00:04:41;3.50;99.90
5055;DHT22;13829;48.990;8.346;2022-12-10T00:07:08;3.40;99.90
5055;DHT22;13829;48.990;8.346;2022-12-10T00:09:35;3.40;99.90
5055;DHT22;13829;48.990;8.346;2022-12-10T00:12:04;3.50;99.90
5055;DHT22;13829;48.990;8.346;2022-12-10T00:14:31;3.40;99.90
5055;DHT22;13829;48.990;8.346;2022-12-10T00:16:58;3.50;99.90
5055;DHT22;13829;48.990;8.346;2022-12-10T00:19:25;3.60;99.90
5055;DHT22;13829;48.990;8.346;2022-12-10T00:21:52;3.50;99.90
5055;DHT22;13829;48.990;8.346;2022-12-10T00:24:19;3.40;99.90
5055;DHT22;13829;48.990;8.346;2022-12-10T00:26:46;3.40;99.90
5055;DHT22;13829;48.990;8.346;2022-12-10T00:29:14;3.40;99.90
5055;DHT22;13829;48.990;8.346;2022-12-10T00:31:41;3.50;99.90
5055;DHT22;13829;48.990;8.346;2022-12-10T00:34:10;3.40;99.90
5055;DHT22;13829;48.990;8.346;2022-12-10T00:36:40;3.30;99.90
5055;DHT22;13829;48.990;8.346;2022-12-10T00:39:10;3.40;99.90
5055;DHT22;13829;48.990;8.346;2022-12-10T00:41:38;3.50;99.90
5055;DHT22;13829;48.990;8.346;2022-12-10T00:44:04;3.40;99.90
5055;DHT22;13829;48.990;8.346;2022-12-10T00:46:33;3.50;99.90
5055;DHT22;13829;48.990;8.346;2022-12-10T00:49:00;3.40;99.90
5055;DHT22;13829;48.990;8.346;2022-12-10T00:51:28;3.40;99.90
5055;DHT22;13829;48.990;8.346;2022-12-10T00:53:56;3.30;99.90
5055;DHT22;13829;48.990;8.346;2022-12-10T00:56:26;3.30;99.90
5055;DHT22;13829;48.990;8.346;2022-12-10T00:58:54;3.30;99.90
5055;DHT22;13829;48.990;8.346;2022-12-10T01:01:24;3.30;99.90
5055;DHT22;13829;48.990;8.346;2022-12-10T01:03:57;3.30;99.90
5055;DHT22;13829;48.990;8.346;2022-12-10T01:06:26;3.20;99.90
5055;DHT22;13829;48.990;8.346;2022-12-10T01:08:57;3.30;99.90
5055;DHT22;13829;48.990;8.346;2022-12-10T01:11:30;3.20;99.90
5055;DHT22;13829;48.990;8.346;2022-12-10T01:13:59;3.20;99.90
5055;DHT22;13829;48.990;8.346;2022-12-10T01:16:26;3.20;99.90
5055;DHT22;13829;48.990;8.346;2022-12-10T01:18:56;3.20;99.90
5055;DHT22;13829;48.990;8.346;2022-12-10T01:21:25;3.20;99.90
5055;DHT22;13829;48.990;8.346;2022-12-10T01:23:54;3.20;99.90
5055;DHT22;13829;48.990;8.346;2022-12-10T01:26:23;3.20;99.90
5055;DHT22;13829;48.990;8.346;2022-12-10T01:28:52;3.20;99.90
5055;DHT22;13829;48.990;8.346;2022-12-10T01:31:23;3.20;99.90
5055;DHT22;13829;48.990;8.346;2022-12-10T01:33:51;3.20;99.90
5055;DHT22;13829;48.990;8.346;2022-12-10T01:36:21;3.20;99.90
5055;DHT22;13829;48.990;8.346;2022-12-10T01:38:50;3.20;99.90
5055;DHT22;13829;48.990;8.346;2022-12-10T01:41:19;3.20;99.90
5055;DHT22;13829;48.990;8.346;2022-12-10T01:43:54;3.20;99.90
5055;DHT22;13829;48.990;8.346;2022-12-10T01:46:24;3.10;99.90
5055;DHT22;13829;48.990;8.346;2022-12-10T01:48:53;3.10;99.90
5055;DHT22;13829;48.990;8.346;2022-12-10T01:51:23;3.20;99.90
5055;DHT22;13829;48.990;8.346;2022-12-10T01:53:51;3.20;99.90
5055;DHT22;13829;48.990;8.346;2022-12-10T01:56:19;3.10;99.90
5055;DHT22;13829;48.990;8.346;2022-12-10T01:58:48;3.10;99.90
5055;DHT22;13829;48.990;8.346;2022-12-10T02:01:25;3.10;99.90
5055;DHT22;13829;48.990;8.346;2022-12-10T02:04:03;3.10;99.90
5055;DHT22;13829;48.990;8.346;2022-12-10T02:06:46;3.10;99.90
5055;DHT22;13829;48.990;8.346;2022-12-10T02:09:27;3.10;99.90
5055;DHT22;13829;48.990;8.346;2022-12-10T02:12:10;3.10;99.90
5055;DHT22;13829;48.990;8.346;2022-12-10T02:14:49;3.10;99.90
5055;DHT22;13829;48.990;8.346;2022-12-10T02:17:24;3.10;99.90
5055;DHT22;13829;48.990;8.346;2022-12-10T02:20:05;3.10;99.90
5055;DHT22;13829;48.990;8.346;2022-12-10T02:22:42;3.10;99.90
5055;DHT22;13829;48.990;8.346;2022-12-10T02:25:14;3.10;99.90
5055;DHT22;13829;48.990;8.346;2022-12-10T02:27:52;3.10;99.90
5055;DHT22;13829;48.990;8.346;2022-12-10T02:30:25;3.10;99.90
5055;DHT22;13829;48.990;8.346;2022-12-10T02:32:54;3.00;99.90
5055;DHT22;13829;48.990;8.346;2022-12-10T02:35:26;2.90;99.90
5055;DHT22;13829;48.990;8.346;2022-12-10T02:37:58;2.90;99.90
5055;DHT22;13829;48.990;8.346;2022-12-10T02:40:31;3.00;99.90
5055;DHT22;13829;48.990;8.346;2022-12-10T02:43:02;3.00;99.90
5055;DHT22;13829;48.990;8.346;2022-12-10T02:45:31;3.00;99.90
5055;DHT22;13829;48.990;8.346;2022-12-10T02:48:02;3.00;99.90
5055;DHT22;13829;48.990;8.346;2022-12-10T02:50:30;3.00;99.90
5055;DHT22;13829;48.990;8.346;2022-12-10T02:52:57;3.10;99.90
5055;DHT22;13829;48.990;8.346;2022-12-10T02:55:24;3.00;99.90
5055;DHT22;13829;48.990;8.346;2022-12-10T02:58:07;3.10;99.90
5055;DHT22;13829;48.990;8.346;2022-12-10T03:00:44;3.00;99.90
5055;DHT22;13829;48.990;8.346;2022-12-10T03:03:27;3.00;99.90
5055;DHT22;13829;48.990;8.346;2022-12-10T03:06:06;3.00;99.90
5055;DHT22;13829;48.990;8.346;2022-12-10T03:08:42;3.00;99.90
5055;DHT22;13829;48.990;8.346;2022-12-10T03:11:15;3.10;99.90
5055;DHT22;13829;48.990;8.346;2022-12-10T03:13:51;3.10;99.90
5055;DHT22;13829;48.990;8.346;2022-12-10T03:16:28;3.10;99.90
5055;DHT22;13829;48.990;8.346;2022-12-10T03:19:02;3.20;99.90
5055;DHT22;13829;48.990;8.346;2022-12-10T03:21:33;3.10;99.90
5055;DHT22;13829;48.990;8.346;2022-12-10T03:24:03;3.10;99.90
5055;DHT22;13829;48.990;8.346;2022-12-10T03:26:32;3.10;99.90
5055;DHT22;13829;48.990;8.346;2022-12-10T03:29:03;3.10;99.90
5055;DHT22;13829;48.990;8.346;2022-12-10T03:31:37;3.10;99.90
5055;DHT22;13829;48.990;8.346;2022-12-10T03:34:07;3.00;99.90
5055;DHT22;13829;48.990;8.346;2022-12-10T03:36:36;3.00;99.90
5055;DHT22;13829;48.990;8.346;2022-12-10T03:39:05;3.00;99.90
5055;DHT22;13829;48.990;8.346;2022-12-10T03:41:32;3.00;99.90
5055;DHT22;13829;48.990;8.346;2022-12-10T03:44:00;3.00;99.90
5055;DHT22;13829;48.990;8.346;2022-12-10T03:46:28;3.00;99.90
5055;DHT22;13829;48.990;8.346;2022-12-10T03:48:59;3.00;99.90
5055;DHT22;13829;48.990;8.346;2022-12-10T03:51:27;3.10;99.90
5055;DHT22;13829;48.990;8.346;2022-12-10T03:53:54;3.10;99.90
5055;DHT22;13829;48.990;8.346;2022-12-10T03:56:21;3.00;99.90
5055;DHT22;13829;48.990;8.346;2022-12-10T03:58:48;3.00;99.90
5055;DHT22;13829;48.990;8.346;2022-12-10T04:01:15;3.00;99.90
5055;DHT22;13829;48.990;8.346;2022-12-10T04:03:43;3.10;99.90
5055;DHT22;13829;48.990;8.346;2022-12-10T04:06:13;3.00;99.90
5055;DHT22;13829;48.990;8.346;2022-12-10T04:08:43;3.00;99.90
5055;DHT22;13829;48.990;8.346;2022-12-10T04:11:12;3.00;99.90
5055;DHT22;13829;48.990;8.346;2022-12-10T04:13:40;2.90;99.90
5055;DHT22;13829;48.990;8.346;2022-12-10T04:16:25;2.90;99.90
5055;DHT22;13829;48.990;8.346;2022-12-10T04:18:54;2.90;99.90
5055;DHT22;13829;48.990;8.346;2022-12-10T04:21:23;2.90;99.90
5055;DHT22;13829;48.990;8.346;2022-12-10T04:24:08;2.90;99.90
5055;DHT22;13829;48.990;8.346;2022-12-10T04:26:53;2.90;99.90
5055;DHT22;13829;48.990;8.346;2022-12-10T04:29:22;2.90;99.90
5055;DHT22;13829;48.990;8.346;2022-12-10T04:31:52;3.00;99.90
5055;DHT22;13829;48.990;8.346;2022-12-10T04:34:19;3.00;99.90
5055;DHT22;13829;48.990;8.346;2022-12-10T04:36:48;3.00;99.90
5055;DHT22;13829;48.990;8.346;2022-12-10T04:39:16;2.90;99.90
5055;DHT22;13829;48.990;8.346;2022-12-10T04:41:47;2.90;99.90
5055;DHT22;13829;48.990;8.346;2022-12-10T04:44:15;3.00;99.90
5055;DHT22;13829;48.990;8.346;2022-12-10T04:46:43;2.90;99.90
5055;DHT22;13829;48.990;8.346;2022-12-10T04:49:10;3.00;99.90
5055;DHT22;13829;48.990;8.346;2022-12-10T04:51:37;3.00;99.90
5055;DHT22;13829;48.990;8.346;2022-12-10T04:54:07;3.10;99.90
5055;DHT22;13829;48.990;8.346;2022-12-10T04:56:34;3.00;99.90
5055;DHT22;13829;48.990;8.346;2022-12-10T04:59:03;3.00;99.90
5055;DHT22;13829;48.990;8.346;2022-12-10T05:01:31;3.10;99.90
5055;DHT22;13829;48.990;8.346;2022-12-10T05:04:00;3.00;99.90
5055;DHT22;13829;48.990;8.346;2022-12-10T05:06:29;3.00;99.90
5055;DHT22;13829;48.990;8.346;2022-12-10T05:08:57;3.00;99.90
5055;DHT22;13829;48.990;8.346;2022-12-10T05:11:27;2.80;99.90
5055;DHT22;13829;48.990;8.346;2022-12-10T05:13:56;2.80;99.90
5055;DHT22;13829;48.990;8.346;2022-12-10T05:16:25;2.90;99.90
5055;DHT22;13829;48.990;8.346;2022-12-10T05:18:54;3.00;99.90
5055;DHT22;13829;48.990;8.346;2022-12-10T05:21:24;2.90;99.90
5055;DHT22;13829;48.990;8.346;2022-12-10T05:24:12;2.90;99.90
5055;DHT22;13829;48.990;8.346;2022-12-10T05:26:40;2.90;99.90
5055;DHT22;13829;48.990;8.346;2022-12-10T05:29:07;2.90;99.90
5055;DHT22;13829;48.990;8.346;2022-12-10T05:31:34;2.80;99.90
5055;DHT22;13829;48.990;8.346;2022-12-10T05:34:01;2.90;99.90
5055;DHT22;13829;48.990;8.346;2022-12-10T05:36:30;2.90;99.90
5055;DHT22;13829;48.990;8.346;2022-12-10T05:38:58;2.80;99.90
5055;DHT22;13829;48.990;8.346;2022-12-10T05:41:27;2.70;99.90
5055;DHT22;13829;48.990;8.346;2022-12-10T05:43:58;2.80;99.90
5055;DHT22;13829;48.990;8.346;2022-12-10T05:46:27;2.70;99.90
5055;DHT22;13829;48.990;8.346;2022-12-10T05:48:56;2.70;99.90
5055;DHT22;13829;48.990;8.346;2022-12-10T05:51:25;2.60;99.90
5055;DHT22;13829;48.990;8.346;2022-12-10T05:53:54;2.60;99.90
5055;DHT22;13829;48.990;8.346;2022-12-10T05:56:23;2.60;99.90
5055;DHT22;13829;48.990;8.346;2022-12-10T05:58:53;2.60;99.90
5055;DHT22;13829;48.990;8.346;2022-12-10T06:01:26;2.60;99.90
5055;DHT22;13829;48.990;8.346;2022-12-10T06:03:54;2.60;99.90
5055;DHT22;13829;48.990;8.346;2022-12-10T06:06:24;2.60;99.90
5055;DHT22;13829;48.990;8.346;2022-12-10T06:08:53;2.60;99.90
5055;DHT22;13829;48.990;8.346;2022-12-10T06:11:20;2.60;99.90
5055;DHT22;13829;48.990;8.346;2022-12-10T06:13:47;2.60;99.90
5055;DHT22;13829;48.990;8.346;2022-12-10T06:16:14;2.60;99.90
5055;DHT22;13829;48.990;8.346;2022-12-10T06:18:43;2.70;99.90
5055;DHT22;13829;48.990;8.346;2022-12-10T06:21:12;2.60;99.90
5055;DHT22;13829;48.990;8.346;2022-12-10T06:23:41;2.60;99.90
5055;DHT22;13829;48.990;8.346;2022-12-10T06:26:10;2.60;99.90
5055;DHT22;13829;48.990;8.346;2022-12-10T06:28:39;2.50;99.90
5055;DHT22;13829;48.990;8.346;2022-12-10T06:31:06;2.50;99.90
5055;DHT22;13829;48.990;8.346;2022-12-10T06:33:33;2.50;99.90
5055;DHT22;13829;48.990;8.346;2022-12-10T06:36:04;2.50;99.90
5055;DHT22;13829;48.990;8.346;2022-12-10T06:38:33;2.60;99.90
5055;DHT22;13829;48.990;8.346;2022-12-10T06:41:01;2.60;99.90
5055;DHT22;13829;48.990;8.346;2022-12-10T06:43:31;2.60;99.90
5055;DHT22;13829;48.990;8.346;2022-12-10T06:45:57;2.60;99.90
5055;DHT22;13829;48.990;8.346;2022-12-10T06:48:24;2.60;99.90
5055;DHT22;13829;48.990;8.346;2022-12-10T06:50:52;2.60;99.90
5055;DHT22;13829;48.990;8.346;2022-12-10T06:53:22;2.60;99.90
5055;DHT22;13829;48.990;8.346;2022-12-10T06:55:49;2.70;99.90
5055;DHT22;13829;48.990;8.346;2022-12-10T06:58:16;2.70;99.90
5055;DHT22;13829;48.990;8.346;2022-12-10T07:00:43;2.70;99.90
5055;DHT22;13829;48.990;8.346;2022-12-10T07:03:10;2.70;99.90
5055;DHT22;13829;48.990;8.346;2022-12-10T07:05:37;2.70;99.90
5055;DHT22;13829;48.990;8.346;2022-12-10T07:08:04;2.70;99.90
5055;DHT22;13829;48.990;8.346;2022-12-10T07:10:32;2.70;99.90
5055;DHT22;13829;48.990;8.346;2022-12-10T07:12:59;2.60;99.90
5055;DHT22;13829;48.990;8.346;2022-12-10T07:15:26;2.70;99.90
5055;DHT22;13829;48.990;8.346;2022-12-10T07:17:53;2.60;99.90
5055;DHT22;13829;48.990;8.346;2022-12-10T07:20:20;2.80;99.90
5055;DHT22;13829;48.990;8.346;2022-12-10T07:22:47;2.80;99.90
5055;DHT22;13829;48.990;8.346;2022-12-10T07:25:14;2.80;99.90
5055;DHT22;13829;48.990;8.346;2022-12-10T07:27:43;2.70;99.90
5055;DHT22;13829;48.990;8.346;2022-12-10T07:30:11;2.70;99.90
5055;DHT22;13829;48.990;8.346;2022-12-10T07:32:38;2.70;99.90
5055;DHT22;13829;48.990;8.346;2022-12-10T07:35:05;2.70;99.90
5055;DHT22;13829;48.990;8.346;2022-12-10T07:37:33;2.80;99.90
5055;DHT22;13829;48.990;8.346;2022-12-10T07:40:00;2.80;99.90
5055;DHT22;13829;48.990;8.346;2022-12-10T07:42:27;2.80;99.90
5055;DHT22;13829;48.990;8.346;2022-12-10T07:44:55;2.90;99.90
5055;DHT22;13829;48.990;8.346;2022-12-10T07:47:22;2.90;99.90
5055;DHT22;13829;48.990;8.346;2022-12-10T07:49:49;2.90;99.90
5055;DHT22;13829;48.990;8.346;2022-12-10T07:52:16;2.90;99.90
5055;DHT22;13829;48.990;8.346;2022-12-10T07:54:43;3.00;99.90
5055;DHT22;13829;48.990;8.346;2022-12-10T07:57:10;3.00;99.90
5055;DHT22;13829;48.990;8.346;2022-12-10T07:59:37;3.00;99.90
5055;DHT22;13829;48.990;8.346;2022-12-10T08:02:05;3.10;99.90
5055;DHT22;13829;48.990;8.346;2022-12-10T08:04:32;3.00;99.90
5055;DHT22;13829;48.990;8.346;2022-12-10T08:06:59;3.00;99.90
5055;DHT22;13829;48.990;8.346;2022-12-10T08:09:25;2.90;99.90
5055;DHT22;13829;48.990;8.346;2022-12-10T08:11:52;3.00;99.90
5055;DHT22;13829;48.990;8.346;2022-12-10T08:14:19;3.10;99.90
5055;DHT22;13829;48.990;8.346;2022-12-10T08:16:46;3.20;99.90
5055;DHT22;13829;48.990;8.346;2022-12-10T08:19:14;3.10;99.90
5055;DHT22;13829;48.990;8.346;2022-12-10T08:21:42;3.10;99.90
5055;DHT22;13829;48.990;8.346;2022-12-10T08:24:09;3.20;99.90
5055;DHT22;13829;48.990;8.346;2022-12-10T08:26:36;3.20;99.90
5055;DHT22;13829;48.990;8.346;2022-12-10T08:29:04;3.10;99.90
5055;DHT22;13829;48.990;8.346;2022-12-10T08:31:31;3.20;99.90
5055;DHT22;13829;48.990;8.346;2022-12-10T08:33:58;3.20;99.90
5055;DHT22;13829;48.990;8.346;2022-12-10T08:36:26;3.10;99.90
5055;DHT22;13829;48.990;8.346;2022-12-10T08:38:53;3.10;99.90
5055;DHT22;13829;48.990;8.346;2022-12-10T08:41:22;3.00;99.90
5055;DHT22;13829;48.990;8.346;2022-12-10T08:43:51;3.00;99.90
5055;DHT22;13829;48.990;8.346;2022-12-10T08:46:19;3.00;99.90
5055;DHT22;13829;48.990;8.346;2022-12-10T08:48:46;3.00;99.90
5055;DHT22;13829;48.990;8.346;2022-12-10T08:51:15;3.10;99.90
5055;DHT22;13829;48.990;8.346;2022-12-10T08:53:44;3.10;99.90
5055;DHT22;13829;48.990;8.346;2022-12-10T08:56:11;3.30;99.90
5055;DHT22;13829;48.990;8.346;2022-12-10T08:58:39;3.30;99.90
5055;DHT22;13829;48.990;8.346;2022-12-10T09:01:07;3.40;99.90
5055;DHT22;13829;48.990;8.346;2022-12-10T09:03:35;3.30;99.90
5055;DHT22;13829;48.990;8.346;2022-12-10T09:06:04;3.20;99.90
5055;DHT22;13829;48.990;8.346;2022-12-10T09:08:32;3.20;99.90
5055;DHT22;13829;48.990;8.346;2022-12-10T09:11:05;3.30;99.90
5055;DHT22;13829;48.990;8.346;2022-12-10T09:13:33;3.30;99.90
5055;DHT22;13829;48.990;8.346;2022-12-10T09:16:01;3.30;99.90
5055;DHT22;13829;48.990;8.346;2022-12-10T09:18:28;3.30;99.90
5055;DHT22;13829;48.990;8.346;2022-12-10T09:20:55;3.20;99.90
5055;DHT22;13829;48.990;8.346;2022-12-10T09:23:22;3.40;99.90
5055;DHT22;13829;48.990;8.346;2022-12-10T09:25:49;3.30;99.90
5055;DHT22;13829;48.990;8.346;2022-12-10T09:28:17;3.40;99.90
5055;DHT22;13829;48.990;8.346;2022-12-10T09:30:44;3.20;99.90
5055;DHT22;13829;48.990;8.346;2022-12-10T09:33:12;3.20;99.90
5055;DHT22;13829;48.990;8.346;2022-12-10T09:35:42;3.10;99.90
5055;DHT22;13829;48.990;8.346;2022-12-10T09:38:09;3.10;99.90
5055;DHT22;13829;48.990;8.346;2022-12-10T09:40:40;3.10;99.90
5055;DHT22;13829;48.990;8.346;2022-12-10T09:43:19;3.20;99.90
5055;DHT22;13829;48.990;8.346;2022-12-10T09:46:01;3.20;99.90
5055;DHT22;13829;48.990;8.346;2022-12-10T09:48:40;3.20;99.90
5055;DHT22;13829;48.990;8.346;2022-12-10T09:51:20;3.30;99.90
5055;DHT22;13829;48.990;8.346;2022-12-10T09:53:52;3.30;99.90
5055;DHT22;13829;48.990;8.346;2022-12-10T09:56:26;3.40;99.90
5055;DHT22;13829;48.990;8.346;2022-12-10T09:59:00;3.30;99.90
5055;DHT22;13829;48.990;8.346;2022-12-10T10:01:31;3.30;99.90
5055;DHT22;13829;48.990;8.346;2022-12-10T10:04:03;3.30;99.90
5055;DHT22;13829;48.990;8.346;2022-12-10T10:06:31;3.20;99.90
5055;DHT22;13829;48.990;8.346;2022-12-10T10:09:01;3.20;99.90
5055;DHT22;13829;48.990;8.346;2022-12-10T10:11:30;3.10;99.90
5055;DHT22;13829;48.990;8.346;2022-12-10T10:14:05;3.10;99.90
5055;DHT22;13829;48.990;8.346;2022-12-10T10:16:43;3.20;99.90
5055;DHT22;13829;48.990;8.346;2022-12-10T10:19:16;3.30;99.90
5055;DHT22;13829;48.990;8.346;2022-12-10T10:21:47;3.50;99.90
5055;DHT22;13829;48.990;8.346;2022-12-10T10:24:17;3.50;99.90
5055;DHT22;13829;48.990;8.346;2022-12-10T10:26:46;3.40;99.90
5055;DHT22;13829;48.990;8.346;2022-12-10T10:29:18;3.20;99.90
5055;DHT22;13829;48.990;8.346;2022-12-10T10:32:12;3.20;99.90
5055;DHT22;13829;48.990;8.346;2022-12-10T10:34:42;3.20;99.90
5055;DHT22;13829;48.990;8.346;2022-12-10T10:37:16;3.30;99.90
5055;DHT22;13829;48.990;8.346;2022-12-10T10:39:48;3.40;99.90
5055;DHT22;13829;48.990;8.346;2022-12-10T10:42:27;3.40;99.90
5055;DHT22;13829;48.990;8.346;2022-12-10T10:45:03;3.30;99.90
5055;DHT22;13829;48.990;8.346;2022-12-10T10:47:34;3.30;99.90
5055;DHT22;13829;48.990;8.346;2022-12-10T10:50:03;3.40;99.90
5055;DHT22;13829;48.990;8.346;2022-12-10T10:52:36;3.40;99.90
5055;DHT22;13829;48.990;8.346;2022-12-10T10:55:05;3.40;99.90
5055;DHT22;13829;48.990;8.346;2022-12-10T10:57:52;3.50;99.90
5055;DHT22;13829;48.990;8.346;2022-12-10T11:00:22;3.40;99.90
5055;DHT22;13829;48.990;8.346;2022-12-10T11:02:49;3.40;99.90
5055;DHT22;13829;48.990;8.346;2022-12-10T11:05:20;3.60;99.90
5055;DHT22;13829;48.990;8.346;2022-12-10T11:07:57;3.50;99.90
5055;DHT22;13829;48.990;8.346;2022-12-10T11:10:26;3.60;99.90
5055;DHT22;13829;48.990;8.346;2022-12-10T11:12:57;3.80;99.90
5055;DHT22;13829;48.990;8.346;2022-12-10T11:15:33;3.90;99.90
5055;DHT22;13829;48.990;8.346;2022-12-10T11:18:03;3.90;99.90
5055;DHT22;13829;48.990;8.346;2022-12-10T11:20:57;4.00;99.90
5055;DHT22;13829;48.990;8.346;2022-12-10T11:23:28;4.00;99.90
5055;DHT22;13829;48.990;8.346;2022-12-10T11:26:02;4.10;99.90
5055;DHT22;13829;48.990;8.346;2022-12-10T11:28:47;4.00;99.90
5055;DHT22;13829;48.990;8.346;2022-12-10T11:31:32;4.00;99.90
5055;DHT22;13829;48.990;8.346;2022-12-10T11:34:14;4.00;99.90
5055;DHT22;13829;48.990;8.346;2022-12-10T11:36:52;3.90;99.90
5055;DHT22;13829;48.990;8.346;2022-12-10T11:39:42;3.90;99.90
5055;DHT22;13829;48.990;8.346;2022-12-10T11:42:29;3.80;99.90
5055;DHT22;13829;48.990;8.346;2022-12-10T11:45:09;3.90;99.90
5055;DHT22;13829;48.990;8.346;2022-12-10T11:50:37;4.10;99.90
5055;DHT22;13829;48.990;8.346;2022-12-10T11:53:19;4.10;99.90
5055;DHT22;13829;48.990;8.346;2022-12-10T11:56:10;4.00;99.90
5055;DHT22;13829;48.990;8.346;2022-12-10T11:58:56;3.90;99.90
5055;DHT22;13829;48.990;8.346;2022-12-10T12:01:36;3.80;99.90
5055;DHT22;13829;48.990;8.346;2022-12-10T12:04:25;3.80;99.90
5055;DHT22;13829;48.990;8.346;2022-12-10T12:07:29;3.90;99.90
5055;DHT22;13829;48.990;8.346;2022-12-10T12:10:41;4.00;99.90
5055;DHT22;13829;48.990;8.346;2022-12-10T12:13:22;4.00;99.90
5055;DHT22;13829;48.990;8.346;2022-12-10T12:15:57;4.00;99.90
5055;DHT22;13829;48.990;8.346;2022-12-10T12:18:35;3.80;99.90
5055;DHT22;13829;48.990;8.346;2022-12-10T12:21:13;3.80;99.90
5055;DHT22;13829;48.990;8.346;2022-12-10T12:23:47;3.90;99.90
5055;DHT22;13829;48.990;8.346;2022-12-10T12:26:23;3.80;99.90
5055;DHT22;13829;48.990;8.346;2022-12-10T12:28:59;3.90;99.90
5055;DHT22;13829;48.990;8.346;2022-12-10T12:31:36;3.90;99.90
5055;DHT22;13829;48.990;8.346;2022-12-10T12:34:11;3.90;99.90
5055;DHT22;13829;48.990;8.346;2022-12-10T12:36:45;3.90;99.90
5055;DHT22;13829;48.990;8.346;2022-12-10T12:39:20;3.80;99.90
5055;DHT22;13829;48.990;8.346;2022-12-10T12:41:59;3.80;99.90
5055;DHT22;13829;48.990;8.346;2022-12-10T12:44:40;3.80;99.90
5055;DHT22;13829;48.990;8.346;2022-12-10T12:47:23;3.80;99.90
5055;DHT22;13829;48.990;8.346;2022-12-10T12:49:59;3.70;99.90
5055;DHT22;13829;48.990;8.346;2022-12-10T12:52:33;3.70;99.90
5055;DHT22;13829;48.990;8.346;2022-12-10T12:55:14;3.60;99.90
5055;DHT22;13829;48.990;8.346;2022-12-10T12:57:49;3.70;99.90
5055;DHT22;13829;48.990;8.346;2022-12-10T13:00:22;3.70;99.90
5055;DHT22;13829;48.990;8.346;2022-12-10T13:02:58;3.80;99.90
5055;DHT22;13829;48.990;8.346;2022-12-10T13:05:37;4.00;99.90
5055;DHT22;13829;48.990;8.346;2022-12-10T13:08:29;4.10;99.90
5055;DHT22;13829;48.990;8.346;2022-12-10T13:11:15;4.10;99.90
5055;DHT22;13829;48.990;8.346;2022-12-10T13:14:30;4.00;99.90
5055;DHT22;13829;48.990;8.346;2022-12-10T13:20:31;4.00;99.90
5055;DHT22;13829;48.990;8.346;2022-12-10T13:23:02;3.80;99.90
5055;DHT22;13829;48.990;8.346;2022-12-10T13:25:39;3.80;99.90
5055;DHT22;13829;48.990;8.346;2022-12-10T13:28:26;3.70;99.90
5055;DHT22;13829;48.990;8.346;2022-12-10T13:31:21;3.80;99.90
5055;DHT22;13829;48.990;8.346;2022-12-10T13:37:18;3.80;99.90
5055;DHT22;13829;48.990;8.346;2022-12-10T13:40:12;3.90;99.90
5055;DHT22;13829;48.990;8.346;2022-12-10T13:42:44;3.90;99.90
5055;DHT22;13829;48.990;8.346;2022-12-10T13:45:32;3.80;99.90
5055;DHT22;13829;48.990;8.346;2022-12-10T13:48:25;3.80;99.90
5055;DHT22;13829;48.990;8.346;2022-12-10T13:51:13;3.90;99.90
5055;DHT22;13829;48.990;8.346;2022-12-10T13:54:08;3.80;99.90
5055;DHT22;13829;48.990;8.346;2022-12-10T13:57:14;3.70;99.90
5055;DHT22;13829;48.990;8.346;2022-12-10T14:00:00;3.70;99.90
5055;DHT22;13829;48.990;8.346;2022-12-10T14:03:00;3.90;99.90
5055;DHT22;13829;48.990;8.346;2022-12-10T14:06:08;4.00;99.90
5055;DHT22;13829;48.990;8.346;2022-12-10T14:08:55;4.10;99.90
5055;DHT22;13829;48.990;8.346;2022-12-10T14:11:29;4.10;99.90
5055;DHT22;13829;48.990;8.346;2022-12-10T14:14:00;4.20;99.90
5055;DHT22;13829;48.990;8.346;2022-12-10T14:16:30;4.20;99.90
5055;DHT22;13829;48.990;8.346;2022-12-10T14:19:01;4.10;99.90
5055;DHT22;13829;48.990;8.346;2022-12-10T14:21:32;4.10;99.90
5055;DHT22;13829;48.990;8.346;2022-12-10T14:24:02;4.10;99.90
5055;DHT22;13829;48.990;8.346;2022-12-10T14:26:33;4.10;99.90
5055;DHT22;13829;48.990;8.346;2022-12-10T14:29:17;4.00;99.90
5055;DHT22;13829;48.990;8.346;2022-12-10T14:31:48;3.90;99.90
5055;DHT22;13829;48.990;8.346;2022-12-10T14:34:18;3.90;99.90
5055;DHT22;13829;48.990;8.346;2022-12-10T14:36:51;3.90;99.90
5055;DHT22;13829;48.990;8.346;2022-12-10T14:39:21;3.80;99.90
5055;DHT22;13829;48.990;8.346;2022-12-10T14:41:56;3.80;99.90
5055;DHT22;13829;48.990;8.346;2022-12-10T14:44:26;3.70;99.90
5055;DHT22;13829;48.990;8.346;2022-12-10T14:47:03;3.70;99.90
5055;DHT22;13829;48.990;8.346;2022-12-10T14:49:39;3.70;99.90
5055;DHT22;13829;48.990;8.346;2022-12-10T14:52:11;3.70;99.90
5055;DHT22;13829;48.990;8.346;2022-12-10T14:54:39;3.70;99.90
5055;DHT22;13829;48.990;8.346;2022-12-10T14:57:13;3.70;99.90
5055;DHT22;13829;48.990;8.346;2022-12-10T14:59:46;3.70;99.90
5055;DHT22;13829;48.990;8.346;2022-12-10T15:02:19;3.70;99.90
5055;DHT22;13829;48.990;8.346;2022-12-10T15:04:51;3.60;99.90
5055;DHT22;13829;48.990;8.346;2022-12-10T15:07:22;3.60;99.90
5055;DHT22;13829;48.990;8.346;2022-12-10T15:09:53;3.80;99.90
5055;DHT22;13829;48.990;8.346;2022-12-10T15:12:31;3.80;99.90
5055;DHT22;13829;48.990;8.346;2022-12-10T15:15:09;3.90;99.90
5055;DHT22;13829;48.990;8.346;2022-12-10T15:17:43;4.00;99.90
5055;DHT22;13829;48.990;8.346;2022-12-10T15:20:23;4.00;99.90
5055;DHT22;13829;48.990;8.346;2022-12-10T15:22:52;4.00;99.90
5055;DHT22;13829;48.990;8.346;2022-12-10T15:25:23;4.00;99.90
5055;DHT22;13829;48.990;8.346;2022-12-10T15:27:58;4.10;99.90
5055;DHT22;13829;48.990;8.346;2022-12-10T15:30:35;4.10;99.90
5055;DHT22;13829;48.990;8.346;2022-12-10T15:33:27;4.10;99.90
5055;DHT22;13829;48.990;8.346;2022-12-10T15:35:59;4.00;99.90
5055;DHT22;13829;48.990;8.346;2022-12-10T15:38:27;4.00;99.90
5055;DHT22;13829;48.990;8.346;2022-12-10T15:40:58;4.10;99.90
5055;DHT22;13829;48.990;8.346;2022-12-10T15:43:56;4.10;99.90
5055;DHT22;13829;48.990;8.346;2022-12-10T15:46:26;4.00;99.90
5055;DHT22;13829;48.990;8.346;2022-12-10T15:48:53;3.80;99.90
5055;DHT22;13829;48.990;8.346;2022-12-10T15:51:20;3.80;99.90
5055;DHT22;13829;48.990;8.346;2022-12-10T15:53:47;3.70;99.90
5055;DHT22;13829;48.990;8.346;2022-12-10T15:56:14;3.70;99.90
5055;DHT22;13829;48.990;8.346;2022-12-10T15:58:42;3.60;99.90
5055;DHT22;13829;48.990;8.346;2022-12-10T16:01:12;3.60;99.90
5055;DHT22;13829;48.990;8.346;2022-12-10T16:03:41;3.70;99.90
5055;DHT22;13829;48.990;8.346;2022-12-10T16:06:08;3.70;99.90
5055;DHT22;13829;48.990;8.346;2022-12-10T16:08:35;3.80;99.90
5055;DHT22;13829;48.990;8.346;2022-12-10T16:11:10;3.70;99.90
5055;DHT22;13829;48.990;8.346;2022-12-10T16:13:46;3.60;99.90
5055;DHT22;13829;48.990;8.346;2022-12-10T16:16:16;3.60;99.90
5055;DHT22;13829;48.990;8.346;2022-12-10T16:18:44;3.60;99.90
5055;DHT22;13829;48.990;8.346;2022-12-10T16:21:11;3.60;99.90
5055;DHT22;13829;48.990;8.346;2022-12-10T16:23:38;3.70;99.90
5055;DHT22;13829;48.990;8.346;2022-12-10T16:26:14;3.60;99.90
5055;DHT22;13829;48.990;8.346;2022-12-10T16:28:42;3.50;99.90
5055;DHT22;13829;48.990;8.346;2022-12-10T16:31:14;3.60;99.90
5055;DHT22;13829;48.990;8.346;2022-12-10T16:33:43;3.40;99.90
5055;DHT22;13829;48.990;8.346;2022-12-10T16:36:12;3.40;99.90
5055;DHT22;13829;48.990;8.346;2022-12-10T16:38:39;3.40;99.90
5055;DHT22;13829;48.990;8.346;2022-12-10T16:41:15;3.10;99.90
5055;DHT22;13829;48.990;8.346;2022-12-10T16:43:44;3.10;99.90
5055;DHT22;13829;48.990;8.346;2022-12-10T16:46:11;3.10;99.90